Time;durP1;ratioP1;P1;durP2;ratioP2;P2;SDS_P1;SDS_P2;PMS_P1;PMS_P2;Temp;Humidity;BMP_temperature;BMP_pressure;BME280_temperature;BME280_humidity;BME280_pressure;Samples;Min_cycle;Max_cycle;Signal;HPM_P1;HPM_P2
2022/12/10 00:01:29;;;;;;;42.53;22.10;;;;;;;7.18;100.00;95000.81;4949144;28;20078;-47
2022/12/10 00:03:58;;;;;;;35.60;20.30;;;;;;;7.00;100.00;95008.78;4950453;28;20507;-46
2022/12/10 00:06:28;;;;;;;36.85;19.48;;;;;;;7.05;100.00;95003.88;4950772;28;20098;-48
2022/12/10 00:08:57;;;;;;;36.28;20.30;;;;;;;7.12;100.00;95006.69;4948798;28;20083;-45
2022/12/10 00:11:26;;;;;;;36.72;21.15;;;;;;;7.05;100.00;95008.31;4941937;28;20079;-46
2022/12/10 00:13:54;;;;;;;34.88;20.50;;;;;;;6.61;100.00;95009.28;4954062;28;20490;-48
2022/12/10 00:16:24;;;;;;;35.47;20.25;;;;;;;7.04;100.00;95017.97;4949605;28;20111;-50
2022/12/10 00:18:55;;;;;;;35.90;20.85;;;;;;;7.25;100.00;95032.47;4953643;28;20071;-46
2022/12/10 00:21:25;;;;;;;35.83;19.90;;;;;;;7.12;100.00;95032.91;4948924;28;20102;-50
2022/12/10 00:23:53;;;;;;;36.03;19.90;;;;;;;7.27;100.00;95036.56;4952487;28;20082;-50
2022/12/10 00:26:23;;;;;;;37.33;19.75;;;;;;;7.43;100.00;95037.56;4951398;28;20079;-45
2022/12/10 00:28:52;;;;;;;39.55;20.95;;;;;;;7.33;100.00;95035.13;4949337;28;20078;-46
2022/12/10 00:31:22;;;;;;;34.58;19.20;;;;;;;7.58;100.00;95028.94;4952523;28;20079;-44
2022/12/10 00:33:51;;;;;;;36.30;20.38;;;;;;;7.63;100.00;95020.56;4953242;28;20067;-44
2022/12/10 00:36:23;;;;;;;38.40;19.98;;;;;;;7.53;100.00;95020.72;4951066;28;20192;-44
2022/12/10 00:38:51;;;;;;;37.03;19.85;;;;;;;7.56;100.00;95014.34;4953446;28;20086;-43
2022/12/10 00:41:20;;;;;;;32.88;18.38;;;;;;;7.61;100.00;95019.94;4954944;28;20070;-44
2022/12/10 00:43:49;;;;;;;35.35;19.33;;;;;;;7.64;100.00;95016.13;4956311;28;20090;-44
2022/12/10 00:46:19;;;;;;;39.10;20.83;;;;;;;7.58;100.00;95013.19;4954376;28;20462;-43
2022/12/10 00:48:47;;;;;;;36.95;20.85;;;;;;;7.60;100.00;95016.50;4955033;28;20095;-44
2022/12/10 00:51:17;;;;;;;34.92;20.25;;;;;;;7.53;100.00;95020.72;4954960;28;20069;-51
2022/12/10 00:53:48;;;;;;;35.33;20.23;;;;;;;7.51;100.00;95019.25;4953177;28;20106;-45
2022/12/10 00:56:18;;;;;;;37.50;21.02;;;;;;;7.45;100.00;95022.53;4955865;28;20606;-48
2022/12/10 00:58:48;;;;;;;37.88;20.52;;;;;;;7.57;100.00;95035.19;4954525;28;20530;-48
2022/12/10 01:01:19;;;;;;;34.97;20.40;;;;;;;7.34;100.00;95034.13;4953492;28;20079;-45
2022/12/10 01:03:49;;;;;;;36.15;20.35;;;;;;;7.49;100.00;95042.19;4953683;28;20086;-43
2022/12/10 01:06:20;;;;;;;34.85;20.42;;;;;;;7.52;100.00;95044.50;4947879;28;20070;-44
2022/12/10 01:08:50;;;;;;;;;;;;;;;7.41;100.00;95034.31;4951574;28;20174;-44
2022/12/10 01:11:20;;;;;;;36.67;19.85;;;;;;;7.45;100.00;95036.44;4952360;28;19949;-43
2022/12/10 01:13:49;;;;;;;35.75;20.27;;;;;;;7.38;100.00;95036.25;4959290;28;20071;-43
2022/12/10 01:16:19;;;;;;;33.75;19.48;;;;;;;7.48;100.00;95043.19;4952960;28;20074;-50
2022/12/10 01:18:49;;;;;;;36.15;20.48;;;;;;;7.51;100.00;95050.72;4949464;28;20082;-44
2022/12/10 01:21:18;;;;;;;35.38;20.45;;;;;;;7.46;100.00;95053.81;4949073;28;20082;-46
2022/12/10 01:23:48;;;;;;;38.20;21.65;;;;;;;7.52;100.00;95052.38;4945947;28;20707;-44
2022/12/10 01:26:20;;;;;;;38.63;21.25;;;;;;;7.47;100.00;95052.84;4948863;28;20098;-45
2022/12/10 01:28:49;;;;;;;33.72;19.63;;;;;;;7.43;100.00;95053.31;4952941;28;20428;-50
2022/12/10 01:31:19;;;;;;;34.78;20.45;;;;;;;7.45;100.00;95065.28;4968117;28;20082;-44
2022/12/10 01:33:48;;;;;;;34.28;20.65;;;;;;;7.48;100.00;95051.03;4948439;28;20070;-45
2022/12/10 01:36:19;;;;;;;34.97;19.88;;;;;;;7.50;100.00;95055.16;4956928;28;20078;-49
2022/12/10 01:38:48;;;;;;;39.15;20.55;;;;;;;7.98;100.00;95058.84;4954494;28;20087;-44
2022/12/10 01:41:21;;;;;;;33.80;20.48;;;;;;;7.67;100.00;95057.78;4957307;28;20537;-44
2022/12/10 01:43:56;;;;;;;33.97;19.83;;;;;;;7.70;100.00;95063.53;4952329;28;20480;-45
2022/12/10 01:46:26;;;;;;;31.98;19.20;;;;;;;7.74;100.00;95057.00;4952550;28;20074;-45
2022/12/10 01:48:54;;;;;;;33.25;19.90;;;;;;;7.76;100.00;95069.97;4956259;28;20079;-45
2022/12/10 01:51:24;;;;;;;32.72;19.35;;;;;;;7.81;100.00;95065.03;4955186;28;20110;-45
2022/12/10 01:53:53;;;;;;;30.53;19.00;;;;;;;7.82;100.00;95061.44;4956169;28;20101;-43
2022/12/10 01:56:23;;;;;;;28.75;17.88;;;;;;;7.78;100.00;95065.38;4953194;28;20074;-50
2022/12/10 01:58:54;;;;;;;35.58;19.13;;;;;;;7.66;100.00;95061.41;4953957;28;20078;-47
2022/12/10 02:01:28;;;;;;;31.90;18.95;;;;;;;7.70;100.00;95058.28;4951195;28;20093;-45
2022/12/10 02:04:04;;;;;;;30.17;19.40;;;;;;;7.75;100.00;95058.66;4955049;28;20055;-44
2022/12/10 02:06:40;;;;;;;33.95;18.52;;;;;;;7.63;100.00;95056.47;4950662;28;20067;-45
2022/12/10 02:09:14;;;;;;;28.75;18.20;;;;;;;7.47;100.00;95063.34;4948707;28;20070;-50
2022/12/10 02:11:50;;;;;;;31.95;18.98;;;;;;;7.56;100.00;95064.16;4948345;28;20086;-49
2022/12/10 02:14:20;;;;;;;28.90;18.23;;;;;;;7.62;100.00;95063.53;4953582;28;20543;-46
2022/12/10 02:16:54;;;;;;;30.52;18.77;;;;;;;7.72;100.00;95066.84;4953061;28;20066;-49
2022/12/10 02:19:29;;;;;;;31.98;18.23;;;;;;;7.74;100.00;95061.41;4954438;28;20078;-46
2022/12/10 02:21:58;;;;;;;28.95;17.83;;;;;;;7.71;100.00;95065.22;4948358;28;20078;-49
2022/12/10 02:24:30;;;;;;;44.37;21.97;;;;;;;7.73;100.00;95065.84;4949452;28;20086;-49
2022/12/10 02:27:05;;;;;;;53.40;23.60;;;;;;;7.73;100.00;95070.28;4956944;28;20494;-48
2022/12/10 02:29:36;;;;;;;39.17;21.08;;;;;;;7.80;100.00;95064.22;4950874;28;20075;-44
2022/12/10 02:32:07;;;;;;;37.65;20.42;;;;;;;7.76;100.00;95059.47;4950184;28;20073;-47
2022/12/10 02:34:38;;;;;;;36.15;19.08;;;;;;;7.80;100.00;95058.16;4953790;28;20095;-49
2022/12/10 02:37:11;;;;;;;32.33;18.95;;;;;;;7.78;100.00;95053.06;4950008;28;20082;-49
2022/12/10 02:39:41;;;;;;;29.75;18.45;;;;;;;7.79;100.00;95057.34;4963085;28;20086;-47
2022/12/10 02:42:09;;;;;;;31.95;19.02;;;;;;;7.75;100.00;95065.69;4953965;28;20105;-50
2022/12/10 02:44:41;;;;;;;30.40;18.67;;;;;;;7.54;100.00;95066.16;4949455;28;20086;-47
2022/12/10 02:47:10;;;;;;;29.98;19.23;;;;;;;7.49;100.00;95061.38;4950147;28;20436;-44
2022/12/10 02:49:40;;;;;;;32.15;18.45;;;;;;;7.37;100.00;95054.78;4953449;28;20465;-44
2022/12/10 02:52:09;;;;;;;31.77;19.37;;;;;;;7.17;100.00;95056.84;4949934;28;20062;-51
2022/12/10 02:54:40;;;;;;;32.83;19.75;;;;;;;7.20;100.00;95053.91;4955579;28;20886;-46
2022/12/10 02:57:17;;;;;;;33.03;18.98;;;;;;;7.10;100.00;95047.97;4947323;28;20074;-44
2022/12/10 03:00:00;;;;;;;31.65;19.70;;;;;;;7.21;100.00;95047.69;4945289;28;20079;-45
2022/12/10 03:02:37;;;;;;;36.45;19.80;;;;;;;7.18;100.00;95055.84;4945248;29;20089;-50
2022/12/10 03:05:10;;;;;;;32.30;18.98;;;;;;;7.24;100.00;95049.19;4946865;28;20082;-43
2022/12/10 03:07:42;;;;;;;33.55;19.23;;;;;;;7.28;100.00;95047.88;4951955;28;20077;-49
2022/12/10 03:10:24;;;;;;;30.58;18.75;;;;;;;7.33;100.00;95049.03;4951397;28;20070;-46
2022/12/10 03:13:00;;;;;;;29.67;19.15;;;;;;;7.17;100.00;95049.00;4955936;28;20089;-47
2022/12/10 03:15:34;;;;;;;30.38;18.38;;;;;;;7.02;100.00;95047.94;4953529;28;20038;-45
2022/12/10 03:18:04;;;;;;;35.47;20.13;;;;;;;7.18;100.00;95041.94;4947682;28;20089;-42
2022/12/10 03:20:34;;;;;;;32.65;19.75;;;;;;;7.28;100.00;95040.00;4952240;28;20117;-45
2022/12/10 03:23:03;;;;;;;35.17;20.10;;;;;;;7.16;100.00;95039.50;4956606;28;20082;-43
2022/12/10 03:25:33;;;;;;;33.17;19.60;;;;;;;7.15;100.00;95040.44;4948898;28;20067;-42
2022/12/10 03:28:01;;;;;;;32.15;19.27;;;;;;;7.05;100.00;95040.56;4949154;28;20079;-48
2022/12/10 03:30:33;;;;;;;30.77;19.10;;;;;;;6.92;100.00;95037.59;4953733;28;20075;-44
2022/12/10 03:33:01;;;;;;;30.95;19.38;;;;;;;6.82;100.00;95035.09;4948817;28;20063;-43
2022/12/10 03:35:30;;;;;;;34.05;19.50;;;;;;;6.65;100.00;95041.22;4951054;28;20095;-48
2022/12/10 03:37:58;;;;;;;34.83;20.00;;;;;;;6.61;100.00;95053.81;4953981;28;20090;-48
2022/12/10 03:40:27;;;;;;;31.27;19.67;;;;;;;6.78;100.00;95038.16;4952200;28;20776;-49
2022/12/10 03:42:55;;;;;;;35.15;19.92;;;;;;;6.70;100.00;95043.34;4949700;28;20543;-45
2022/12/10 03:45:23;;;;;;;34.35;20.00;;;;;;;6.66;100.00;95042.84;4948550;28;20156;-45
2022/12/10 03:47:53;;;;;;;36.00;20.73;;;;;;;6.76;100.00;95042.75;4948009;28;20078;-45
2022/12/10 03:50:21;;;;;;;37.27;20.63;;;;;;;6.69;100.00;95037.31;4948687;28;20078;-47
2022/12/10 03:52:49;;;;;;;36.00;20.48;;;;;;;6.48;100.00;95034.25;4948162;28;20506;-44
2022/12/10 03:55:18;;;;;;;34.80;20.05;;;;;;;6.27;100.00;95032.81;4947376;28;20082;-46
2022/12/10 03:57:46;;;;;;;34.15;20.85;;;;;;;5.85;100.00;95036.06;4947810;28;20078;-47
2022/12/10 04:00:15;;;;;;;33.55;20.48;;;;;;;6.40;100.00;95045.47;4946321;28;20086;-46
2022/12/10 04:02:43;;;;;;;36.97;20.65;;;;;;;6.46;100.00;95039.63;4945054;28;20087;-44
2022/12/10 04:05:13;;;;;;;32.72;19.92;;;;;;;6.38;100.00;95042.19;4947182;28;20082;-48
2022/12/10 04:07:41;;;;;;;31.97;19.63;;;;;;;6.37;100.00;95035.31;4950370;28;20127;-49
2022/12/10 04:10:10;;;;;;;32.65;19.20;;;;;;;6.35;100.00;95035.47;4949259;28;20082;-46
2022/12/10 04:12:38;;;;;;;36.10;19.92;;;;;;;6.57;100.00;95033.28;4952772;28;20089;-46
2022/12/10 04:17:54;;;;;;;32.95;19.52;;;;;;;6.42;100.00;95040.91;4946214;28;20461;-44
2022/12/10 04:28:49;;;;;;;34.63;19.98;;;;;;;6.84;100.00;95061.94;4953098;28;20067;-47
2022/12/10 04:31:18;;;;;;;34.20;19.98;;;;;;;6.92;100.00;95055.09;4952148;28;20090;-49
2022/12/10 04:33:46;;;;;;;32.58;19.60;;;;;;;6.82;100.00;95048.19;4949018;28;20530;-47
2022/12/10 04:36:15;;;;;;;37.00;21.05;;;;;;;6.80;100.00;95039.66;4948931;28;20083;-50
2022/12/10 04:38:44;;;;;;;35.15;20.52;;;;;;;6.62;100.00;95041.53;4950751;28;20791;-47
2022/12/10 04:41:15;;;;;;;33.65;19.75;;;;;;;6.86;100.00;95053.94;4949771;28;20082;-45
2022/12/10 04:43:43;;;;;;;34.58;20.70;;;;;;;6.86;100.00;95057.38;4949396;28;20087;-46
2022/12/10 04:46:12;;;;;;;34.38;20.45;;;;;;;6.86;100.00;95057.38;4946766;28;20468;-47
2022/12/10 04:48:40;;;;;;;40.90;22.15;;;;;;;6.89;100.00;95058.88;4949208;28;20083;-50
2022/12/10 04:51:08;;;;;;;37.00;21.60;;;;;;;6.94;100.00;95064.44;4950872;28;20082;-46
2022/12/10 04:53:38;;;;;;;38.03;21.17;;;;;;;6.99;100.00;95071.84;4950615;28;20561;-51
2022/12/10 04:56:07;;;;;;;41.80;22.65;;;;;;;6.98;100.00;95075.44;4951334;28;20082;-53
2022/12/10 04:58:35;;;;;;;36.65;20.35;;;;;;;6.90;100.00;95070.97;4950192;28;20080;-45
2022/12/10 05:01:04;;;;;;;38.72;20.73;;;;;;;7.02;100.00;95063.66;4950021;28;20083;-45
2022/12/10 05:03:33;;;;;;;38.08;21.00;;;;;;;7.03;100.00;95070.56;4948793;28;20087;-43
2022/12/10 05:06:02;;;;;;;36.95;21.17;;;;;;;7.03;100.00;95065.31;4949386;28;20079;-50
2022/12/10 05:08:30;;;;;;;39.15;21.98;;;;;;;6.96;100.00;95053.81;4949236;28;20497;-44
2022/12/10 05:11:03;;;;;;;36.28;20.27;;;;;;;6.93;100.00;95056.75;4947930;28;20106;-45
2022/12/10 05:13:31;;;;;;;39.15;21.85;;;;;;;6.92;100.00;95063.78;4950655;28;20074;-43
2022/12/10 05:16:01;;;;;;;41.22;22.75;;;;;;;6.84;100.00;95061.94;4949157;28;20228;-43
2022/12/10 05:18:30;;;;;;;;;;;;;;;6.30;100.00;95063.09;4952732;28;20087;-49
2022/12/10 05:20:59;;;;;;;41.60;21.73;;;;;;;6.74;100.00;95060.41;4952461;28;19950;-53
2022/12/10 05:23:29;;;;;;;40.53;22.53;;;;;;;6.76;100.00;95050.59;4947386;28;20339;-45
2022/12/10 05:26:04;;;;;;;39.63;21.33;;;;;;;6.69;100.00;95053.03;4952824;28;20558;-48
2022/12/10 05:28:35;;;;;;;35.28;20.42;;;;;;;6.60;100.00;95051.31;4950801;28;20071;-45
2022/12/10 05:31:05;;;;;;;40.40;22.42;;;;;;;6.75;100.00;95048.97;4953470;28;20124;-43
2022/12/10 05:33:33;;;;;;;41.15;21.85;;;;;;;6.66;100.00;95045.47;4950014;28;20082;-44
2022/12/10 05:36:03;;;;;;;40.85;22.67;;;;;;;6.55;100.00;95043.13;4949702;28;20083;-44
2022/12/10 05:38:33;;;;;;;34.75;21.50;;;;;;;6.62;100.00;95047.56;4946914;28;20468;-44
2022/12/10 05:41:03;;;;;;;39.78;21.45;;;;;;;6.55;100.00;95050.97;4952647;28;20069;-44
2022/12/10 05:43:32;;;;;;;;;;;;;;;6.33;100.00;95044.44;4952920;28;20082;-47
2022/12/10 05:46:01;;;;;;;36.47;19.90;;;;;;;6.50;100.00;95056.66;4949771;28;19953;-45
2022/12/10 05:48:30;;;;;;;37.50;20.83;;;;;;;6.60;100.00;95049.53;4950641;28;20091;-46
2022/12/10 05:50:58;;;;;;;39.53;21.75;;;;;;;6.58;100.00;95054.09;4955194;28;20572;-45
2022/12/10 05:53:26;;;;;;;40.80;21.05;;;;;;;6.62;100.00;95054.63;4951571;28;20090;-46
2022/12/10 05:56:00;;;;;;;36.70;21.23;;;;;;;6.87;100.00;95059.00;4948664;28;20487;-43
2022/12/10 05:58:30;;;;;;;36.13;21.35;;;;;;;7.07;100.00;95066.63;4952028;28;20079;-47
2022/12/10 06:00:59;;;;;;;38.03;21.63;;;;;;;7.21;100.00;95070.47;4948163;28;20091;-44
2022/12/10 06:03:28;;;;;;;40.85;22.33;;;;;;;7.23;100.00;95071.94;4952201;28;20505;-47
2022/12/10 06:05:56;;;;;;;39.72;21.17;;;;;;;7.30;100.00;95080.00;4954581;28;20708;-46
2022/12/10 06:08:24;;;;;;;35.40;20.92;;;;;;;7.21;100.00;95075.69;4952324;28;20093;-49
2022/12/10 06:10:53;;;;;;;38.47;20.40;;;;;;;7.27;100.00;95068.03;4946338;28;20082;-44
2022/12/10 06:13:22;;;;;;;36.70;20.67;;;;;;;7.21;100.00;95079.16;4952033;28;20094;-49
2022/12/10 06:15:51;;;;;;;34.50;19.95;;;;;;;7.31;100.00;95074.59;4950677;28;20075;-44
2022/12/10 06:18:20;;;;;;;31.80;19.53;;;;;;;7.32;100.00;95081.47;4952274;28;20093;-49
2022/12/10 06:20:49;;;;;;;33.85;19.35;;;;;;;7.35;100.00;95072.47;4947340;28;20087;-43
2022/12/10 06:23:17;;;;;;;37.80;21.10;;;;;;;7.19;100.00;95077.66;4942900;29;20094;-49
2022/12/10 06:25:45;;;;;;;35.80;20.67;;;;;;;6.92;100.00;95073.44;4950838;28;20090;-47
2022/12/10 06:28:14;;;;;;;35.10;20.98;;;;;;;7.19;100.00;95077.66;4947114;28;20084;-48
2022/12/10 06:30:42;;;;;;;36.10;21.02;;;;;;;7.12;100.00;95077.44;4950374;28;20094;-44
2022/12/10 06:33:11;;;;;;;38.30;21.52;;;;;;;6.81;100.00;95077.13;4953088;28;20082;-44
2022/12/10 06:35:40;;;;;;;35.70;20.63;;;;;;;7.30;100.00;95080.81;4950597;28;20495;-45
2022/12/10 06:38:08;;;;;;;38.83;20.98;;;;;;;7.39;100.00;95076.41;4945166;28;20109;-47
2022/12/10 06:40:40;;;;;;;38.78;21.52;;;;;;;7.45;100.00;95077.59;4945069;28;20473;-44
2022/12/10 06:43:08;;;;;;;40.83;22.85;;;;;;;7.04;100.00;95074.81;4947646;28;20090;-48
2022/12/10 06:45:40;;;;;;;41.05;23.58;;;;;;;7.20;100.00;95079.31;4937273;28;20083;-47
2022/12/10 06:48:09;;;;;;;37.42;21.45;;;;;;;7.36;100.00;95077.56;4942083;29;20086;-47
2022/12/10 06:50:38;;;;;;;39.55;22.17;;;;;;;7.49;100.00;95076.28;4945819;28;20091;-46
2022/12/10 06:53:06;;;;;;;35.20;21.17;;;;;;;7.42;100.00;95085.78;4944960;28;20455;-50
2022/12/10 06:55:37;;;;;;;42.30;23.50;;;;;;;7.30;100.00;95077.38;4950944;28;20083;-52
2022/12/10 06:58:05;;;;;;;43.45;22.73;;;;;;;7.09;100.00;95073.38;4946831;28;20326;-45
2022/12/10 07:00:33;;;;;;;39.70;22.00;;;;;;;7.18;100.00;95074.22;4949521;28;20090;-43
2022/12/10 07:03:02;;;;;;;41.15;23.40;;;;;;;7.17;100.00;95071.75;4946842;29;20087;-48
2022/12/10 07:05:30;;;;;;;42.38;24.60;;;;;;;7.27;100.00;95068.03;4950973;28;20093;-43
2022/12/10 07:07:59;;;;;;;42.60;23.75;;;;;;;7.29;100.00;95067.84;4945145;28;20531;-45
2022/12/10 07:10:28;;;;;;;43.53;25.20;;;;;;;7.28;100.00;95077.53;4945481;28;20082;-49
2022/12/10 07:12:57;;;;;;;44.08;23.42;;;;;;;7.11;100.00;95071.41;4951180;29;20086;-44
2022/12/10 07:15:27;;;;;;;41.88;23.33;;;;;;;7.10;100.00;95079.44;4950817;28;20043;-49
2022/12/10 07:17:55;;;;;;;43.25;23.60;;;;;;;7.07;100.00;95077.94;4939102;28;20091;-43
2022/12/10 07:20:23;;;;;;;42.05;23.42;;;;;;;7.43;100.00;95076.91;4949199;28;20085;-49
2022/12/10 07:22:52;;;;;;;38.85;22.20;;;;;;;7.46;100.00;95090.53;4947956;29;20492;-46
2022/12/10 07:25:21;;;;;;;41.08;23.95;;;;;;;7.52;100.00;95079.41;4950635;28;20087;-44
2022/12/10 07:27:49;;;;;;;46.97;23.75;;;;;;;7.55;100.00;95086.16;4944636;28;20937;-43
2022/12/10 07:30:24;;;;;;;43.55;23.13;;;;;;;7.73;100.00;95088.63;4947911;28;20083;-49
2022/12/10 07:32:52;;;;;;;40.25;22.60;;;;;;;7.49;100.00;95092.84;4948328;29;20504;-44
2022/12/10 07:35:21;;;;;;;40.78;22.15;;;;;;;7.59;100.00;95083.03;4951189;28;20063;-50
2022/12/10 07:37:49;;;;;;;40.42;22.77;;;;;;;7.59;100.00;95087.47;4943835;28;20086;-48
2022/12/10 07:40:17;;;;;;;40.88;22.23;;;;;;;7.60;100.00;95081.22;4950539;28;20100;-48
2022/12/10 07:42:47;;;;;;;36.33;21.27;;;;;;;7.76;100.00;95081.28;4950946;28;20063;-44
2022/12/10 07:45:15;;;;;;;37.75;21.40;;;;;;;7.68;100.00;95086.50;4953415;28;20086;-49
2022/12/10 07:47:44;;;;;;;38.45;20.60;;;;;;;7.87;100.00;95089.81;4954674;28;20546;-48
2022/12/10 07:50:12;;;;;;;38.10;21.85;;;;;;;7.90;100.00;95086.88;4945736;28;20083;-42
2022/12/10 07:52:40;;;;;;;36.22;21.63;;;;;;;7.96;100.00;95100.16;4950157;28;20086;-45
2022/12/10 07:55:09;;;;;;;38.65;21.33;;;;;;;7.90;100.00;95094.75;4941446;28;20094;-47
2022/12/10 07:57:37;;;;;;;35.95;21.27;;;;;;;8.02;100.00;95094.28;4957446;28;20679;-46
2022/12/10 08:00:08;;;;;;;36.38;20.80;;;;;;;8.07;100.00;95091.16;4953147;28;20082;-44
2022/12/10 08:02:37;;;;;;;39.33;21.27;;;;;;;8.16;100.00;95098.06;4953726;29;20098;-48
2022/12/10 08:05:06;;;;;;;38.47;21.50;;;;;;;8.17;100.00;95086.56;4954803;28;20094;-46
2022/12/10 08:07:34;;;;;;;33.83;19.95;;;;;;;8.21;100.00;95090.50;4954421;28;20083;-43
2022/12/10 08:10:03;;;;;;;37.85;20.95;;;;;;;8.24;100.00;95084.13;4948207;28;20098;-46
2022/12/10 08:12:32;;;;;;;36.75;20.98;;;;;;;8.17;100.00;95086.56;4949105;28;20086;-44
2022/12/10 08:15:02;;;;;;;38.00;21.15;;;;;;;8.17;100.00;95083.13;4949793;29;20083;-43
2022/12/10 08:17:31;;;;;;;38.83;20.13;;;;;;;8.29;100.00;95092.31;4953786;28;20482;-45
2022/12/10 08:20:00;;;;;;;33.95;20.35;;;;;;;8.40;100.00;95086.78;4954272;28;20090;-45
2022/12/10 08:22:28;;;;;;;35.63;20.58;;;;;;;8.33;100.00;95091.84;4954474;28;20079;-51
2022/12/10 08:24:57;;;;;;;38.42;20.40;;;;;;;8.37;100.00;95088.88;4951797;28;20572;-46
2022/12/10 08:27:25;;;;;;;37.70;20.45;;;;;;;8.12;100.00;95093.28;4946547;28;20089;-46
2022/12/10 08:29:53;;;;;;;35.60;20.13;;;;;;;8.01;100.00;95092.63;4942387;28;20082;-50
2022/12/10 08:32:22;;;;;;;43.20;21.95;;;;;;;7.96;100.00;95088.84;4953954;28;20090;-47
2022/12/10 08:34:51;;;;;;;40.88;22.10;;;;;;;7.96;100.00;95092.31;4947484;28;20075;-50
2022/12/10 08:37:20;;;;;;;38.95;20.75;;;;;;;7.99;100.00;95097.22;4952535;28;20083;-43
2022/12/10 08:39:48;;;;;;;37.47;20.00;;;;;;;8.16;100.00;95105.13;4946753;28;20093;-45
2022/12/10 08:42:16;;;;;;;35.28;19.77;;;;;;;8.25;100.00;95104.13;4950478;28;20802;-51
2022/12/10 08:44:45;;;;;;;36.63;20.15;;;;;;;8.31;100.00;95099.03;4947484;29;20091;-47
2022/12/10 08:47:13;;;;;;;35.20;19.88;;;;;;;8.29;100.00;95103.66;4952093;28;20075;-44
2022/12/10 08:49:41;;;;;;;36.33;20.63;;;;;;;8.32;100.00;95099.84;4953660;28;20086;-45
2022/12/10 08:52:11;;;;;;;36.47;20.55;;;;;;;8.16;100.00;95103.31;4959399;28;20481;-44
2022/12/10 08:54:39;;;;;;;36.03;19.77;;;;;;;8.32;100.00;95113.00;4941833;28;20433;-46
2022/12/10 08:57:08;;;;;;;39.63;20.88;;;;;;;8.43;100.00;95111.88;4946759;28;20456;-45
2022/12/10 08:59:36;;;;;;;37.10;21.00;;;;;;;8.57;100.00;95111.22;4953291;28;20090;-45
2022/12/10 09:02:04;;;;;;;39.17;20.38;;;;;;;8.64;100.00;95108.78;4946986;28;20087;-48
2022/12/10 09:04:32;;;;;;;38.08;21.20;;;;;;;8.63;100.00;95110.53;4953365;28;20078;-43
2022/12/10 09:07:01;;;;;;;37.47;19.60;;;;;;;8.64;100.00;95114.03;4946564;28;20087;-42
2022/12/10 09:09:32;;;;;;;35.92;20.20;;;;;;;8.49;100.00;95111.22;4953631;28;20090;-44
2022/12/10 09:12:00;;;;;;;35.95;19.80;;;;;;;8.48;100.00;95120.09;4953074;28;20557;-47
2022/12/10 09:14:28;;;;;;;36.15;20.02;;;;;;;8.62;100.00;95108.91;4953684;28;20091;-49
2022/12/10 09:16:57;;;;;;;37.15;19.77;;;;;;;8.38;100.00;95120.25;4949162;28;20082;-46
2022/12/10 09:19:25;;;;;;;34.47;20.15;;;;;;;8.28;100.00;95115.13;4951438;28;20090;-44
2022/12/10 09:21:53;;;;;;;36.45;20.27;;;;;;;8.40;100.00;95120.91;4949564;28;20074;-46
2022/12/10 09:24:21;;;;;;;36.03;20.08;;;;;;;8.35;100.00;95125.78;4946499;28;20095;-46
2022/12/10 09:26:51;;;;;;;37.78;20.38;;;;;;;8.33;100.00;95125.97;4944926;28;20492;-41
2022/12/10 09:29:19;;;;;;;36.53;19.55;;;;;;;8.37;100.00;95123.03;4952632;28;20102;-48
2022/12/10 09:31:50;;;;;;;36.85;18.85;;;;;;;8.33;100.00;95115.47;4951888;28;20102;-45
2022/12/10 09:34:19;;;;;;;38.10;20.17;;;;;;;8.36;100.00;95116.94;4949830;28;20099;-43
2022/12/10 09:36:48;;;;;;;36.75;20.23;;;;;;;8.39;100.00;95118.44;4949772;28;20547;-48
2022/12/10 09:39:16;;;;;;;35.40;21.08;;;;;;;8.62;100.00;95127.31;4945399;28;20494;-47
2022/12/10 09:42:02;;;;;;;37.88;20.80;;;;;;;8.53;100.00;95130.91;4953126;28;20459;-48
2022/12/10 09:44:39;;;;;;;35.40;18.65;;;;;;;8.43;100.00;95127.63;4942457;28;20094;-48
2022/12/10 09:47:09;;;;;;;39.78;19.50;;;;;;;8.24;100.00;95131.38;4946507;28;20095;-45
2022/12/10 09:49:47;;;;;;;37.50;20.10;;;;;;;8.33;100.00;95136.47;4960799;28;20553;-45
2022/12/10 09:52:19;;;;;;;36.00;18.77;;;;;;;8.08;100.00;95137.41;4942780;28;20083;-45
2022/12/10 09:54:50;;;;;;;36.63;19.90;;;;;;;8.23;100.00;95138.44;4942956;29;20094;-46
2022/12/10 09:57:23;;;;;;;33.17;18.55;;;;;;;7.98;100.00;95134.13;4952098;28;20113;-44
2022/12/10 09:59:52;;;;;;;37.03;19.60;;;;;;;7.97;100.00;95135.94;4945965;29;20086;-45
2022/12/10 10:02:23;;;;;;;34.85;18.80;;;;;;;7.90;100.00;95131.50;4947000;28;20075;-49
2022/12/10 10:04:55;;;;;;;37.78;20.05;;;;;;;7.83;100.00;95134.75;4952275;28;20113;-44
2022/12/10 10:07:26;;;;;;;34.83;19.80;;;;;;;7.71;100.00;95133.41;4952326;28;20091;-46
2022/12/10 10:09:56;;;;;;;;;;;;;;;7.63;100.00;95125.50;4940393;28;20579;-44
2022/12/10 10:12:27;;;;;;;35.53;18.92;;;;;;;7.77;100.00;95122.25;4951899;28;19969;-44
2022/12/10 10:14:56;;;;;;;40.58;20.33;;;;;;;7.96;100.00;95122.97;4945803;28;20082;-49
2022/12/10 10:17:28;;;;;;;33.90;18.08;;;;;;;7.87;100.00;95122.13;4946058;28;20492;-44
2022/12/10 10:20:00;;;;;;;34.22;19.23;;;;;;;7.95;100.00;95118.69;4946974;29;20476;-43
2022/12/10 10:22:29;;;;;;;37.75;19.98;;;;;;;7.82;100.00;95120.00;4946415;28;20536;-45
2022/12/10 10:25:02;;;;;;;34.55;18.77;;;;;;;7.82;100.00;95116.56;4946165;29;20459;-50
2022/12/10 10:27:33;;;;;;;38.72;19.65;;;;;;;7.59;100.00;95124.19;4946999;28;20475;-47
2022/12/10 10:30:04;;;;;;;37.55;19.83;;;;;;;7.69;100.00;95126.69;4947303;28;20472;-46
2022/12/10 10:32:50;;;;;;;35.42;18.30;;;;;;;7.52;100.00;95128.44;4955419;28;20090;-47
2022/12/10 10:35:24;;;;;;;36.08;18.90;;;;;;;7.45;100.00;95124.78;4951371;28;20082;-49
2022/12/10 10:37:53;;;;;;;34.10;19.42;;;;;;;7.63;100.00;95119.44;4953664;28;20090;-51
2022/12/10 10:40:24;;;;;;;36.15;19.08;;;;;;;7.50;100.00;95120.72;4951815;28;20083;-46
2022/12/10 10:42:56;;;;;;;38.97;19.45;;;;;;;7.40;100.00;95124.44;4950855;28;20071;-44
2022/12/10 10:45:52;;;;;;;32.22;17.85;;;;;;;7.26;100.00;95128.47;4942004;28;20089;-43
2022/12/10 10:48:22;;;;;;;36.22;19.13;;;;;;;7.47;100.00;95123.66;4938118;28;20093;-44
2022/12/10 10:50:52;;;;;;;43.75;21.70;;;;;;;7.59;100.00;95117.13;4934872;29;20090;-44
2022/12/10 10:53:29;;;;;;;44.25;21.05;;;;;;;7.60;100.00;95121.41;4939086;28;20071;-46
2022/12/10 10:56:06;;;;;;;40.53;20.48;;;;;;;7.76;100.00;95122.44;4945144;29;20468;-47
2022/12/10 10:58:36;;;;;;;40.08;21.02;;;;;;;7.87;100.00;95116.06;4938788;28;20086;-45
2022/12/10 11:01:07;;;;;;;44.85;21.27;;;;;;;7.66;100.00;95114.69;4951856;29;20087;-47
2022/12/10 11:03:38;;;;;;;39.58;19.88;;;;;;;7.65;100.00;95105.19;4950127;28;20063;-47
2022/12/10 11:06:08;;;;;;;35.45;19.13;;;;;;;7.56;100.00;95104.34;4946891;29;20087;-51
2022/12/10 11:08:39;;;;;;;41.20;20.40;;;;;;;7.54;100.00;95105.50;4950245;28;20079;-46
2022/12/10 11:11:12;;;;;;;51.40;25.50;;;;;;;7.50;100.00;95109.41;4951413;28;20086;-44
2022/12/10 11:13:42;;;;;;;45.30;22.95;;;;;;;7.52;100.00;95102.19;4951545;28;20078;-49
2022/12/10 11:16:13;;;;;;;45.95;21.13;;;;;;;7.68;100.00;95099.63;4950064;28;20083;-46
2022/12/10 11:18:43;;;;;;;41.00;21.33;;;;;;;7.45;100.00;95102.00;4950335;28;20093;-47
2022/12/10 11:21:18;;;;;;;44.17;22.42;;;;;;;7.46;100.00;95101.03;4950845;28;20083;-46
2022/12/10 11:23:49;;;;;;;44.97;23.05;;;;;;;7.45;100.00;95093.31;4944408;28;20075;-46
2022/12/10 11:26:30;;;;;;;65.57;29.17;;;;;;;7.26;100.00;95091.75;4950562;28;20078;-51
2022/12/10 11:29:12;;;;;;;81.10;37.15;;;;;;;7.35;100.00;95106.56;4950612;28;20099;-49
2022/12/10 11:31:49;;;;;;;50.67;23.77;;;;;;;7.59;100.00;95106.66;4944566;28;20085;-46
2022/12/10 11:34:21;;;;;;;46.78;23.20;;;;;;;7.62;100.00;95097.63;4951256;28;20086;-48
2022/12/10 11:36:58;;;;;;;46.15;21.90;;;;;;;7.75;100.00;95099.81;4945625;28;20078;-48
2022/12/10 11:39:44;;;;;;;43.38;22.83;;;;;;;7.73;100.00;95093.88;4944823;28;20086;-46
2022/12/10 11:42:19;;;;;;;42.60;21.52;;;;;;;7.76;100.00;95101.44;4937568;28;20075;-44
2022/12/10 11:44:54;;;;;;;43.72;21.90;;;;;;;7.70;100.00;95100.28;4942613;29;20758;-43